sensor_id;sensor_type;location;lat;lon;timestamp;pressure;altitude;pressure_sealevel;temperature;humidity
21276;BME280;36472;52.170;20.884;2023-01-31T00:00:50;99191.34;;;4.11;91.14
21276;BME280;36472;52.170;20.884;2023-01-31T00:03:24;99188.38;;;4.03;91.38
21276;BME280;36472;52.170;20.884;2023-01-31T00:05:53;99202.09;;;4.05;91.37
21276;BME280;36472;52.170;20.884;2023-01-31T00:08:22;99196.38;;;4.15;91.10
21276;BME280;36472;52.170;20.884;2023-01-31T00:10:51;99207.13;;;4.08;91.57
21276;BME280;36472;52.170;20.884;2023-01-31T00:13:22;99208.38;;;4.17;91.08
21276;BME280;36472;52.170;20.884;2023-01-31T00:15:51;99213.50;;;4.19;91.34
21276;BME280;36472;52.170;20.884;2023-01-31T00:18:23;99197.88;;;4.19;90.86
21276;BME280;36472;52.170;20.884;2023-01-31T00:20:52;99209.13;;;4.19;90.75
21276;BME280;36472;52.170;20.884;2023-01-31T00:23:23;99217.75;;;4.20;90.67
21276;BME280;36472;52.170;20.884;2023-01-31T00:25:52;99211.41;;;4.09;91.23
21276;BME280;36472;52.170;20.884;2023-01-31T00:28:22;99229.00;;;4.20;91.63
21276;BME280;36472;52.170;20.884;2023-01-31T00:30:51;99222.03;;;4.21;91.25
21276;BME280;36472;52.170;20.884;2023-01-31T00:33:24;99228.13;;;4.20;91.12
21276;BME280;36472;52.170;20.884;2023-01-31T00:35:53;99237.81;;;4.18;91.17
21276;BME280;36472;52.170;20.884;2023-01-31T00:38:22;99228.53;;;4.28;90.88
21276;BME280;36472;52.170;20.884;2023-01-31T00:40:53;99234.78;;;4.25;90.85
21276;BME280;36472;52.170;20.884;2023-01-31T00:43:23;99232.75;;;4.30;90.90
21276;BME280;36472;52.170;20.884;2023-01-31T00:45:52;99236.53;;;4.25;90.89
21276;BME280;36472;52.170;20.884;2023-01-31T00:48:23;99238.78;;;4.31;90.37
21276;BME280;36472;52.170;20.884;2023-01-31T00:50:53;99240.81;;;4.26;90.72
21276;BME280;36472;52.170;20.884;2023-01-31T00:53:22;99242.38;;;4.28;91.03
21276;BME280;36472;52.170;20.884;2023-01-31T00:55:59;99251.63;;;4.18;90.97
21276;BME280;36472;52.170;20.884;2023-01-31T00:58:30;99252.03;;;4.26;90.66
21276;BME280;36472;52.170;20.884;2023-01-31T01:01:06;99247.81;;;4.40;90.34
21276;BME280;36472;52.170;20.884;2023-01-31T01:03:36;99254.47;;;4.29;90.73
21276;BME280;36472;52.170;20.884;2023-01-31T01:06:07;99259.88;;;4.10;91.58
21276;BME280;36472;52.170;20.884;2023-01-31T01:08:39;99268.19;;;4.17;91.94
21276;BME280;36472;52.170;20.884;2023-01-31T01:11:12;99261.47;;;4.13;92.45
21276;BME280;36472;52.170;20.884;2023-01-31T01:13:43;99269.16;;;4.15;92.66
21276;BME280;36472;52.170;20.884;2023-01-31T01:16:17;99269.00;;;4.18;92.47
21276;BME280;36472;52.170;20.884;2023-01-31T01:18:47;99260.47;;;4.16;92.60
21276;BME280;36472;52.170;20.884;2023-01-31T01:21:19;99259.81;;;4.12;92.63
21276;BME280;36472;52.170;20.884;2023-01-31T01:23:49;99267.50;;;4.14;92.54
21276;BME280;36472;52.170;20.884;2023-01-31T01:26:21;99267.16;;;4.20;92.21
21276;BME280;36472;52.170;20.884;2023-01-31T01:28:52;99264.56;;;4.20;92.66
21276;BME280;36472;52.170;20.884;2023-01-31T01:31:23;99267.22;;;4.18;92.39
21276;BME280;36472;52.170;20.884;2023-01-31T01:33:59;99269.91;;;4.17;92.61
21276;BME280;36472;52.170;20.884;2023-01-31T01:36:31;99267.59;;;4.12;92.82
21276;BME280;36472;52.170;20.884;2023-01-31T01:39:01;99273.00;;;4.23;91.71
21276;BME280;36472;52.170;20.884;2023-01-31T01:41:32;99270.03;;;4.15;92.04
21276;BME280;36472;52.170;20.884;2023-01-31T01:44:39;99276.41;;;4.09;92.30
21276;BME280;36472;52.170;20.884;2023-01-31T01:46:53;99278.16;;;4.09;92.63
21276;BME280;36472;52.170;20.884;2023-01-31T01:49:30;99295.03;;;4.02;92.58
21276;BME280;36472;52.170;20.884;2023-01-31T01:52:05;99295.03;;;4.02;93.38
21276;BME280;36472;52.170;20.884;2023-01-31T01:54:41;99288.81;;;4.04;93.27
21276;BME280;36472;52.170;20.884;2023-01-31T01:57:18;99300.38;;;4.15;92.62
21276;BME280;36472;52.170;20.884;2023-01-31T02:00:02;99306.31;;;4.17;92.85
21276;BME280;36472;52.170;20.884;2023-01-31T02:02:42;99310.09;;;4.27;92.44
21276;BME280;36472;52.170;20.884;2023-01-31T02:05:15;99321.44;;;4.26;92.08
21276;BME280;36472;52.170;20.884;2023-01-31T02:07:46;99311.44;;;4.18;92.17
21276;BME280;36472;52.170;20.884;2023-01-31T02:10:21;99320.00;;;4.04;92.42
21276;BME280;36472;52.170;20.884;2023-01-31T02:12:52;99326.91;;;4.05;92.80
21276;BME280;36472;52.170;20.884;2023-01-31T02:15:23;99327.72;;;4.22;92.19
21276;BME280;36472;52.170;20.884;2023-01-31T02:17:53;99332.81;;;4.23;92.03
21276;BME280;36472;52.170;20.884;2023-01-31T02:24:46;99361.34;;;4.25;91.78
21276;BME280;36472;52.170;20.884;2023-01-31T02:31:32;99353.72;;;4.22;91.51
21276;BME280;36472;52.170;20.884;2023-01-31T02:34:16;99361.44;;;4.23;91.18
21276;BME280;36472;52.170;20.884;2023-01-31T02:37:03;99356.72;;;4.30;90.93
21276;BME280;36472;52.170;20.884;2023-01-31T02:39:48;99364.44;;;4.31;90.42
21276;BME280;36472;52.170;20.884;2023-01-31T02:42:30;99373.88;;;4.34;90.51
21276;BME280;36472;52.170;20.884;2023-01-31T02:45:09;99377.22;;;4.36;89.98
21276;BME280;36472;52.170;20.884;2023-01-31T02:48:02;99384.28;;;4.34;90.34
21276;BME280;36472;52.170;20.884;2023-01-31T02:50:48;99387.63;;;4.36;90.02
21276;BME280;36472;52.170;20.884;2023-01-31T02:53:29;99396.25;;;4.37;89.50
21276;BME280;36472;52.170;20.884;2023-01-31T02:56:04;99398.44;;;4.44;89.24
21276;BME280;36472;52.170;20.884;2023-01-31T02:58:58;99400.94;;;4.30;89.38
21276;BME280;36472;52.170;20.884;2023-01-31T03:01:32;99409.91;;;4.40;89.28
21276;BME280;36472;52.170;20.884;2023-01-31T03:04:06;99411.25;;;4.47;88.88
21276;BME280;36472;52.170;20.884;2023-01-31T03:06:59;99410.00;;;4.55;88.47
21276;BME280;36472;52.170;20.884;2023-01-31T03:09:41;99427.66;;;4.49;88.17
21276;BME280;36472;52.170;20.884;2023-01-31T03:15:40;99438.34;;;4.59;87.49
21276;BME280;36472;52.170;20.884;2023-01-31T03:18:33;99437.84;;;4.53;87.71
21276;BME280;36472;52.170;20.884;2023-01-31T03:21:11;99449.19;;;4.52;87.25
21276;BME280;36472;52.170;20.884;2023-01-31T03:23:49;99446.69;;;4.50;87.75
21276;BME280;36472;52.170;20.884;2023-01-31T03:26:21;99454.50;;;4.50;87.46
21276;BME280;36472;52.170;20.884;2023-01-31T03:28:52;99466.47;;;4.53;87.35
21276;BME280;36472;52.170;20.884;2023-01-31T03:31:29;99459.63;;;4.52;86.62
21276;BME280;36472;52.170;20.884;2023-01-31T03:34:04;99466.47;;;4.53;86.47
21276;BME280;36472;52.170;20.884;2023-01-31T03:36:42;99467.75;;;4.45;86.71
21276;BME280;36472;52.170;20.884;2023-01-31T03:39:42;99472.03;;;4.46;86.60
21276;BME280;36472;52.170;20.884;2023-01-31T03:42:22;99478.16;;;4.45;86.21
21276;BME280;36472;52.170;20.884;2023-01-31T03:45:01;99474.63;;;4.46;87.11
21276;BME280;36472;52.170;20.884;2023-01-31T03:47:37;99474.28;;;4.53;85.86
21276;BME280;36472;52.170;20.884;2023-01-31T03:50:13;99461.13;;;4.40;86.35
21276;BME280;36472;52.170;20.884;2023-01-31T03:52:53;99473.31;;;4.39;86.31
21276;BME280;36472;52.170;20.884;2023-01-31T03:55:32;99472.03;;;4.46;85.51
21276;BME280;36472;52.170;20.884;2023-01-31T03:58:05;99473.53;;;4.50;85.61
21276;BME280;36472;52.170;20.884;2023-01-31T04:00:39;99482.44;;;4.46;85.42
21276;BME280;36472;52.170;20.884;2023-01-31T04:03:18;99474.13;;;4.40;85.84
21276;BME280;36472;52.170;20.884;2023-01-31T04:05:48;99482.53;;;4.45;85.86
21276;BME280;36472;52.170;20.884;2023-01-31T04:08:20;99486.22;;;4.41;85.08
21276;BME280;36472;52.170;20.884;2023-01-31T04:11:03;99486.22;;;4.41;85.00
21276;BME280;36472;52.170;20.884;2023-01-31T04:13:33;99490.41;;;4.43;84.81
21276;BME280;36472;52.170;20.884;2023-01-31T04:16:02;99489.16;;;4.35;84.97
21276;BME280;36472;52.170;20.884;2023-01-31T04:18:32;99497.94;;;4.32;85.39
21276;BME280;36472;52.170;20.884;2023-01-31T04:21:05;99499.03;;;4.28;85.43
21276;BME280;36472;52.170;20.884;2023-01-31T04:23:34;99510.13;;;4.31;85.34
21276;BME280;36472;52.170;20.884;2023-01-31T04:26:05;99505.94;;;4.45;84.99
21276;BME280;36472;52.170;20.884;2023-01-31T04:28:34;99511.53;;;4.37;84.72
21276;BME280;36472;52.170;20.884;2023-01-31T04:31:03;99516.66;;;4.23;85.25
21276;BME280;36472;52.170;20.884;2023-01-31T04:33:32;99521.19;;;4.35;84.84
21276;BME280;36472;52.170;20.884;2023-01-31T04:36:02;99527.50;;;4.31;84.72
21276;BME280;36472;52.170;20.884;2023-01-31T04:38:31;99537.31;;;4.26;84.68
21276;BME280;36472;52.170;20.884;2023-01-31T04:40:59;99546.94;;;4.24;84.74
21276;BME280;36472;52.170;20.884;2023-01-31T04:43:30;99544.94;;;4.29;84.62
21276;BME280;36472;52.170;20.884;2023-01-31T04:45:59;99543.03;;;4.33;84.03
21276;BME280;36472;52.170;20.884;2023-01-31T04:48:28;99547.28;;;4.34;83.95
21276;BME280;36472;52.170;20.884;2023-01-31T04:50:57;99550.16;;;4.29;84.02
21276;BME280;36472;52.170;20.884;2023-01-31T04:53:26;99555.34;;;4.29;84.39
21276;BME280;36472;52.170;20.884;2023-01-31T04:55:55;99558.78;;;4.29;84.02
21276;BME280;36472;52.170;20.884;2023-01-31T04:58:25;99566.16;;;4.37;83.76
21276;BME280;36472;52.170;20.884;2023-01-31T05:00:55;99560.41;;;4.48;82.90
21276;BME280;36472;52.170;20.884;2023-01-31T05:03:24;99568.47;;;4.43;82.70
21276;BME280;36472;52.170;20.884;2023-01-31T05:05:53;99559.16;;;4.39;82.90
21276;BME280;36472;52.170;20.884;2023-01-31T05:08:22;99566.16;;;4.37;82.52
21276;BME280;36472;52.170;20.884;2023-01-31T05:10:57;99576.31;;;4.26;82.61
21276;BME280;36472;52.170;20.884;2023-01-31T05:13:29;99572.47;;;4.33;81.84
21276;BME280;36472;52.170;20.884;2023-01-31T05:16:01;99571.88;;;4.28;82.05
21276;BME280;36472;52.170;20.884;2023-01-31T05:18:30;99576.91;;;4.31;82.15
21276;BME280;36472;52.170;20.884;2023-01-31T05:20:59;99581.03;;;4.35;82.06
21276;BME280;36472;52.170;20.884;2023-01-31T05:23:28;99596.31;;;4.41;81.48
21276;BME280;36472;52.170;20.884;2023-01-31T05:25:58;99599.69;;;4.43;81.22
21276;BME280;36472;52.170;20.884;2023-01-31T05:28:27;99605.44;;;4.33;81.28
21276;BME280;36472;52.170;20.884;2023-01-31T05:31:04;99611.84;;;4.43;81.29
21276;BME280;36472;52.170;20.884;2023-01-31T05:33:35;99617.34;;;4.21;81.03
21276;BME280;36472;52.170;20.884;2023-01-31T05:36:04;99613.84;;;4.38;80.99
21276;BME280;36472;52.170;20.884;2023-01-31T05:38:33;99626.19;;;4.34;81.37
21276;BME280;36472;52.170;20.884;2023-01-31T05:41:02;99639.00;;;4.37;80.98
21276;BME280;36472;52.170;20.884;2023-01-31T05:43:31;99635.47;;;4.22;81.16
21276;BME280;36472;52.170;20.884;2023-01-31T05:46:04;99633.31;;;4.30;80.87
21276;BME280;36472;52.170;20.884;2023-01-31T05:48:33;99638.94;;;4.39;81.69
21276;BME280;36472;52.170;20.884;2023-01-31T05:51:02;99647.75;;;4.36;81.29
21276;BME280;36472;52.170;20.884;2023-01-31T05:53:31;99657.16;;;4.39;80.86
21276;BME280;36472;52.170;20.884;2023-01-31T05:56:01;99653.47;;;4.43;81.02
21276;BME280;36472;52.170;20.884;2023-01-31T05:58:30;99657.22;;;4.37;81.18
21276;BME280;36472;52.170;20.884;2023-01-31T06:00:58;99664.22;;;4.19;81.54
21276;BME280;36472;52.170;20.884;2023-01-31T06:03:29;99663.31;;;4.20;82.66
21276;BME280;36472;52.170;20.884;2023-01-31T06:05:58;99679.88;;;4.35;81.80
21276;BME280;36472;52.170;20.884;2023-01-31T06:08:28;99678.44;;;4.29;82.46
21276;BME280;36472;52.170;20.884;2023-01-31T06:11:00;99676.31;;;4.20;82.43
21276;BME280;36472;52.170;20.884;2023-01-31T06:13:29;99684.41;;;4.31;82.00
21276;BME280;36472;52.170;20.884;2023-01-31T06:15:58;99693.38;;;4.26;82.42
21276;BME280;36472;52.170;20.884;2023-01-31T06:18:29;99692.97;;;4.16;82.90
21276;BME280;36472;52.170;20.884;2023-01-31T06:20:58;99700.41;;;4.24;82.60
21276;BME280;36472;52.170;20.884;2023-01-31T06:23:27;99702.69;;;4.12;82.88
21276;BME280;36472;52.170;20.884;2023-01-31T06:25:57;99705.97;;;4.16;83.00
21276;BME280;36472;52.170;20.884;2023-01-31T06:28:26;99705.63;;;4.24;82.85
21276;BME280;36472;52.170;20.884;2023-01-31T06:30:55;99717.81;;;4.22;83.09
21276;BME280;36472;52.170;20.884;2023-01-31T06:33:24;99716.00;;;4.24;82.53
21276;BME280;36472;52.170;20.884;2023-01-31T06:36:14;99721.38;;;4.21;82.38
21276;BME280;36472;52.170;20.884;2023-01-31T06:38:49;99724.72;;;4.23;82.53
21276;BME280;36472;52.170;20.884;2023-01-31T06:41:19;99736.66;;;4.27;82.33
21276;BME280;36472;52.170;20.884;2023-01-31T06:43:48;99731.28;;;4.12;82.17
21276;BME280;36472;52.170;20.884;2023-01-31T06:46:17;99738.81;;;4.19;82.54
21276;BME280;36472;52.170;20.884;2023-01-31T06:48:47;99744.00;;;4.19;82.79
21276;BME280;36472;52.170;20.884;2023-01-31T06:51:17;99745.31;;;4.10;82.78
21276;BME280;36472;52.170;20.884;2023-01-31T06:53:46;99739.56;;;4.21;82.36
21276;BME280;36472;52.170;20.884;2023-01-31T06:56:15;99745.69;;;4.20;82.32
21276;BME280;36472;52.170;20.884;2023-01-31T06:58:44;99755.66;;;4.29;81.80
21276;BME280;36472;52.170;20.884;2023-01-31T07:01:14;99763.53;;;4.27;81.85
21276;BME280;36472;52.170;20.884;2023-01-31T07:03:44;99767.16;;;4.23;82.03
21276;BME280;36472;52.170;20.884;2023-01-31T07:06:12;99763.53;;;4.27;81.71
21276;BME280;36472;52.170;20.884;2023-01-31T07:08:43;99771.00;;;4.34;81.40
21276;BME280;36472;52.170;20.884;2023-01-31T07:11:12;99780.34;;;4.38;81.30
21276;BME280;36472;52.170;20.884;2023-01-31T07:13:41;99777.97;;;4.16;81.54
21276;BME280;36472;52.170;20.884;2023-01-31T07:16:12;99788.78;;;4.43;80.54
21276;BME280;36472;52.170;20.884;2023-01-31T07:18:43;99795.50;;;4.47;80.33
21276;BME280;36472;52.170;20.884;2023-01-31T07:21:12;99805.28;;;4.42;80.66
21276;BME280;36472;52.170;20.884;2023-01-31T07:23:43;99802.00;;;4.38;80.89
21276;BME280;36472;52.170;20.884;2023-01-31T07:26:13;99814.09;;;4.39;80.33
21276;BME280;36472;52.170;20.884;2023-01-31T07:28:42;99809.59;;;4.43;79.89
21276;BME280;36472;52.170;20.884;2023-01-31T07:31:13;99817.16;;;4.47;80.27
21276;BME280;36472;52.170;20.884;2023-01-31T07:33:42;99809.19;;;4.50;79.76
21276;BME280;36472;52.170;20.884;2023-01-31T07:36:13;99814.03;;;4.41;79.24
21276;BME280;36472;52.170;20.884;2023-01-31T07:38:44;99811.66;;;4.36;79.13
21276;BME280;36472;52.170;20.884;2023-01-31T07:41:13;99825.97;;;4.45;78.77
21276;BME280;36472;52.170;20.884;2023-01-31T07:43:43;99829.25;;;4.48;78.40
21276;BME280;36472;52.170;20.884;2023-01-31T07:46:11;99841.38;;;4.49;78.45
21276;BME280;36472;52.170;20.884;2023-01-31T07:48:41;99841.66;;;4.43;78.32
21276;BME280;36472;52.170;20.884;2023-01-31T07:51:10;99839.19;;;4.40;78.25
21276;BME280;36472;52.170;20.884;2023-01-31T07:53:40;99846.72;;;4.46;77.61
21276;BME280;36472;52.170;20.884;2023-01-31T07:56:14;99848.31;;;4.49;76.97
21276;BME280;36472;52.170;20.884;2023-01-31T07:58:45;99855.59;;;4.60;76.66
21276;BME280;36472;52.170;20.884;2023-01-31T08:01:17;99853.38;;;4.52;76.58
21276;BME280;36472;52.170;20.884;2023-01-31T08:04:07;99858.22;;;4.60;76.54
21276;BME280;36472;52.170;20.884;2023-01-31T08:06:50;99858.22;;;4.60;76.42
21276;BME280;36472;52.170;20.884;2023-01-31T08:09:22;99883.44;;;4.58;75.55
21276;BME280;36472;52.170;20.884;2023-01-31T08:11:53;99874.25;;;4.50;75.86
21276;BME280;36472;52.170;20.884;2023-01-31T08:14:22;99873.97;;;4.57;75.50
21276;BME280;36472;52.170;20.884;2023-01-31T08:16:52;99897.31;;;4.58;75.50
21276;BME280;36472;52.170;20.884;2023-01-31T08:19:22;99888.34;;;4.46;75.73
21276;BME280;36472;52.170;20.884;2023-01-31T08:21:50;99887.88;;;4.56;75.59
21276;BME280;36472;52.170;20.884;2023-01-31T08:24:20;99883.84;;;4.67;74.91
21276;BME280;36472;52.170;20.884;2023-01-31T08:26:48;99893.03;;;4.75;75.41
21276;BME280;36472;52.170;20.884;2023-01-31T08:29:19;99884.19;;;4.79;74.56
21276;BME280;36472;52.170;20.884;2023-01-31T08:31:48;99889.31;;;4.80;74.91
21276;BME280;36472;52.170;20.884;2023-01-31T08:34:19;99903.31;;;4.78;75.03
21276;BME280;36472;52.170;20.884;2023-01-31T08:36:49;99904.25;;;4.77;74.90
21276;BME280;36472;52.170;20.884;2023-01-31T08:39:19;99897.13;;;4.80;74.84
21276;BME280;36472;52.170;20.884;2023-01-31T08:41:48;99896.56;;;4.91;74.15
21276;BME280;36472;52.170;20.884;2023-01-31T08:44:18;99901.56;;;4.96;73.73
21276;BME280;36472;52.170;20.884;2023-01-31T08:46:47;99902.94;;;5.03;73.46
21276;BME280;36472;52.170;20.884;2023-01-31T08:49:16;99906.84;;;4.94;73.01
21276;BME280;36472;52.170;20.884;2023-01-31T08:51:45;99916.56;;;4.91;72.88
21276;BME280;36472;52.170;20.884;2023-01-31T08:54:14;99916.72;;;4.87;73.19
21276;BME280;36472;52.170;20.884;2023-01-31T08:56:43;99907.75;;;4.76;72.72
21276;BME280;36472;52.170;20.884;2023-01-31T08:59:12;99919.47;;;4.84;72.72
21276;BME280;36472;52.170;20.884;2023-01-31T09:01:43;99909.81;;;4.86;72.95
21276;BME280;36472;52.170;20.884;2023-01-31T09:04:13;99922.28;;;4.80;72.75
21276;BME280;36472;52.170;20.884;2023-01-31T09:06:42;99918.38;;;4.71;73.22
21276;BME280;36472;52.170;20.884;2023-01-31T09:09:11;99927.34;;;4.83;72.32
21276;BME280;36472;52.170;20.884;2023-01-31T09:11:40;99918.69;;;4.65;72.79
21276;BME280;36472;52.170;20.884;2023-01-31T09:14:09;99933.91;;;4.73;72.72
21276;BME280;36472;52.170;20.884;2023-01-31T09:16:38;99935.47;;;4.77;72.68
21276;BME280;36472;52.170;20.884;2023-01-31T09:19:11;99936.78;;;4.68;72.86
21276;BME280;36472;52.170;20.884;2023-01-31T09:21:40;99933.31;;;4.85;72.37
21276;BME280;36472;52.170;20.884;2023-01-31T09:24:09;99938.09;;;4.77;73.46
21276;BME280;36472;52.170;20.884;2023-01-31T09:26:38;99944.13;;;4.77;73.04
21276;BME280;36472;52.170;20.884;2023-01-31T09:29:07;99948.09;;;4.84;73.30
21276;BME280;36472;52.170;20.884;2023-01-31T09:31:36;99946.75;;;4.95;72.56
21276;BME280;36472;52.170;20.884;2023-01-31T09:34:05;99956.78;;;5.02;72.35
21276;BME280;36472;52.170;20.884;2023-01-31T09:36:36;99952.09;;;4.92;72.65
21276;BME280;36472;52.170;20.884;2023-01-31T09:39:05;99960.22;;;4.85;72.38
21276;BME280;36472;52.170;20.884;2023-01-31T09:41:39;99962.56;;;4.90;72.52
21276;BME280;36472;52.170;20.884;2023-01-31T09:44:14;99964.44;;;5.05;72.52
21276;BME280;36472;52.170;20.884;2023-01-31T09:46:53;99960.09;;;5.06;72.43
21276;BME280;36472;52.170;20.884;2023-01-31T09:49:30;99965.44;;;5.03;72.95
21276;BME280;36472;52.170;20.884;2023-01-31T09:52:03;99960.84;;;5.08;72.87
21276;BME280;36472;52.170;20.884;2023-01-31T09:54:36;99958.84;;;5.13;72.61
21276;BME280;36472;52.170;20.884;2023-01-31T09:57:18;99956.94;;;5.17;71.55
21276;BME280;36472;52.170;20.884;2023-01-31T10:00:04;99966.28;;;5.21;72.00
21276;BME280;36472;52.170;20.884;2023-01-31T10:03:03;99966.66;;;5.13;71.40
21276;BME280;36472;52.170;20.884;2023-01-31T10:05:46;99963.31;;;5.11;71.71
21276;BME280;36472;52.170;20.884;2023-01-31T10:08:37;99963.22;;;5.13;71.51
21276;BME280;36472;52.170;20.884;2023-01-31T10:11:14;99952.41;;;5.20;70.97
21276;BME280;36472;52.170;20.884;2023-01-31T10:13:51;99953.03;;;5.25;70.14
21276;BME280;36472;52.170;20.884;2023-01-31T10:16:29;99962.31;;;5.31;69.89
21276;BME280;36472;52.170;20.884;2023-01-31T10:19:05;99953.19;;;5.40;69.84
21276;BME280;36472;52.170;20.884;2023-01-31T10:21:42;99961.13;;;5.54;69.52
21276;BME280;36472;52.170;20.884;2023-01-31T10:24:25;99959.28;;;5.56;69.11
21276;BME280;36472;52.170;20.884;2023-01-31T10:27:03;99960.84;;;5.60;68.70
21276;BME280;36472;52.170;20.884;2023-01-31T10:29:39;99954.00;;;5.58;68.51
21276;BME280;36472;52.170;20.884;2023-01-31T10:32:20;99970.16;;;5.65;67.97
21276;BME280;36472;52.170;20.884;2023-01-31T10:34:58;99960.84;;;5.60;67.66
21276;BME280;36472;52.170;20.884;2023-01-31T10:37:36;99955.91;;;5.54;67.30
21276;BME280;36472;52.170;20.884;2023-01-31T10:40:17;99956.44;;;5.61;67.72
21276;BME280;36472;52.170;20.884;2023-01-31T10:42:51;99956.75;;;5.72;67.84
21276;BME280;36472;52.170;20.884;2023-01-31T10:45:26;99953.13;;;5.75;67.07
21276;BME280;36472;52.170;20.884;2023-01-31T10:48:13;99959.50;;;5.69;67.08
21276;BME280;36472;52.170;20.884;2023-01-31T10:50:57;99951.38;;;5.58;67.31
21276;BME280;36472;52.170;20.884;2023-01-31T10:53:53;99963.66;;;5.56;67.03
21276;BME280;36472;52.170;20.884;2023-01-31T10:56:31;99957.16;;;5.47;67.04
21276;BME280;36472;52.170;20.884;2023-01-31T10:59:09;99949.00;;;5.53;67.02
21276;BME280;36472;52.170;20.884;2023-01-31T11:01:40;99965.66;;;5.51;66.92
21276;BME280;36472;52.170;20.884;2023-01-31T11:04:23;99954.75;;;5.60;66.04
21276;BME280;36472;52.170;20.884;2023-01-31T11:06:53;99955.28;;;5.67;65.73
21276;BME280;36472;52.170;20.884;2023-01-31T11:09:23;99944.19;;;5.63;65.11
21276;BME280;36472;52.170;20.884;2023-01-31T11:11:58;99948.84;;;5.56;64.53
21276;BME280;36472;52.170;20.884;2023-01-31T11:14:27;99961.06;;;5.56;63.75
21276;BME280;36472;52.170;20.884;2023-01-31T11:17:02;99961.59;;;5.62;62.62
21276;BME280;36472;52.170;20.884;2023-01-31T11:19:36;99961.44;;;5.48;62.41
21276;BME280;36472;52.170;20.884;2023-01-31T11:22:08;99969.50;;;5.61;63.62
21276;BME280;36472;52.170;20.884;2023-01-31T11:24:49;99979.59;;;5.67;63.79
21276;BME280;36472;52.170;20.884;2023-01-31T11:27:26;99971.41;;;5.57;63.08
21276;BME280;36472;52.170;20.884;2023-01-31T11:29:59;99970.72;;;5.54;62.87
21276;BME280;36472;52.170;20.884;2023-01-31T11:32:34;99982.72;;;5.74;63.46
21276;BME280;36472;52.170;20.884;2023-01-31T11:35:21;99981.34;;;5.67;64.02
21276;BME280;36472;52.170;20.884;2023-01-31T11:37:54;99973.94;;;5.59;64.62
21276;BME280;36472;52.170;20.884;2023-01-31T11:40:31;99968.81;;;5.57;65.02
21276;BME280;36472;52.170;20.884;2023-01-31T11:43:04;99982.91;;;5.71;65.60
21276;BME280;36472;52.170;20.884;2023-01-31T11:45:36;99969.06;;;5.69;64.95
21276;BME280;36472;52.170;20.884;2023-01-31T11:48:14;99973.31;;;5.71;65.19
21276;BME280;36472;52.170;20.884;2023-01-31T11:50:52;99962.72;;;5.74;64.83
21276;BME280;36472;52.170;20.884;2023-01-31T11:53:25;99972.72;;;5.82;65.10
21276;BME280;36472;52.170;20.884;2023-01-31T11:56:13;99967.22;;;5.88;64.97
21276;BME280;36472;52.170;20.884;2023-01-31T11:58:47;99956.38;;;5.96;64.15
21276;BME280;36472;52.170;20.884;2023-01-31T12:01:20;99955.56;;;6.11;64.32
21276;BME280;36472;52.170;20.884;2023-01-31T12:03:56;99954.41;;;6.17;63.17
21276;BME280;36472;52.170;20.884;2023-01-31T12:06:33;99956.06;;;6.02;63.26
21276;BME280;36472;52.170;20.884;2023-01-31T12:09:05;99934.81;;;6.10;61.93
21276;BME280;36472;52.170;20.884;2023-01-31T12:11:50;99940.84;;;6.10;61.31
21276;BME280;36472;52.170;20.884;2023-01-31T12:14:22;99940.25;;;6.05;60.51
21276;BME280;36472;52.170;20.884;2023-01-31T12:16:54;99938.25;;;6.10;60.38
21276;BME280;36472;52.170;20.884;2023-01-31T12:19:37;99922.84;;;6.38;60.30
21276;BME280;36472;52.170;20.884;2023-01-31T12:22:22;99922.00;;;6.53;58.92
21276;BME280;36472;52.170;20.884;2023-01-31T12:25:06;99920.81;;;6.43;58.45
21276;BME280;36472;52.170;20.884;2023-01-31T12:27:51;99918.63;;;6.51;57.89
21276;BME280;36472;52.170;20.884;2023-01-31T12:30:53;99936.56;;;6.73;57.38
21276;BME280;36472;52.170;20.884;2023-01-31T12:33:41;99921.75;;;6.58;56.67
21276;BME280;36472;52.170;20.884;2023-01-31T12:36:28;99926.72;;;6.46;57.29
21276;BME280;36472;52.170;20.884;2023-01-31T12:39:24;99922.25;;;6.32;57.11
21276;BME280;36472;52.170;20.884;2023-01-31T12:42:20;99920.75;;;6.44;57.05
21276;BME280;36472;52.170;20.884;2023-01-31T12:45:13;99909.97;;;6.34;57.35
21276;BME280;36472;52.170;20.884;2023-01-31T12:48:38;99912.66;;;6.33;56.38
21276;BME280;36472;52.170;20.884;2023-01-31T12:51:30;99915.84;;;6.38;56.61
21276;BME280;36472;52.170;20.884;2023-01-31T12:54:22;99918.53;;;6.36;56.97
21276;BME280;36472;52.170;20.884;2023-01-31T12:57:17;99918.63;;;6.19;57.66
21276;BME280;36472;52.170;20.884;2023-01-31T12:59:58;99926.22;;;6.24;57.43
21276;BME280;36472;52.170;20.884;2023-01-31T13:02:44;99932.28;;;5.91;57.98
21276;BME280;36472;52.170;20.884;2023-01-31T13:05:30;99931.44;;;5.90;58.36
21276;BME280;36472;52.170;20.884;2023-01-31T13:08:06;99931.00;;;5.82;58.46
21276;BME280;36472;52.170;20.884;2023-01-31T13:10:49;99927.03;;;5.75;59.12
21276;BME280;36472;52.170;20.884;2023-01-31T13:13:27;99924.06;;;5.83;59.87
21276;BME280;36472;52.170;20.884;2023-01-31T13:16:03;99923.25;;;5.80;59.81
21276;BME280;36472;52.170;20.884;2023-01-31T13:18:34;99923.31;;;5.63;59.20
21276;BME280;36472;52.170;20.884;2023-01-31T13:21:08;99918.09;;;5.63;60.24
21276;BME280;36472;52.170;20.884;2023-01-31T13:23:45;99912.66;;;5.68;59.31
21276;BME280;36472;52.170;20.884;2023-01-31T13:26:23;99910.78;;;5.54;59.05
21276;BME280;36472;52.170;20.884;2023-01-31T13:29:00;99907.16;;;5.56;59.51
21276;BME280;36472;52.170;20.884;2023-01-31T13:31:38;99908.94;;;5.56;59.58
21276;BME280;36472;52.170;20.884;2023-01-31T13:34:18;99916.06;;;5.52;59.58
21276;BME280;36472;52.170;20.884;2023-01-31T13:36:56;99908.56;;;5.46;59.37
21276;BME280;36472;52.170;20.884;2023-01-31T13:39:36;99903.75;;;5.38;58.69
21276;BME280;36472;52.170;20.884;2023-01-31T13:42:09;99910.56;;;5.41;57.79
21276;BME280;36472;52.170;20.884;2023-01-31T13:44:42;99914.25;;;5.37;58.48
21276;BME280;36472;52.170;20.884;2023-01-31T13:47:19;99910.34;;;5.28;58.62
21276;BME280;36472;52.170;20.884;2023-01-31T13:49:54;99911.50;;;5.22;57.99